createdAt,value
2022-12-09T00:01:08.074Z,13.18
2022-12-09T00:03:36.438Z,15.65
2022-12-09T00:06:07.943Z,15.45
2022-12-09T00:08:36.701Z,14.90
2022-12-09T00:11:05.081Z,14.90
2022-12-09T00:13:34.637Z,15.88
2022-12-09T00:16:07.215Z,14.73
2022-12-09T00:18:35.427Z,15.50
2022-12-09T00:21:13.480Z,16.08
2022-12-09T00:23:41.321Z,14.82
2022-12-09T00:26:09.835Z,14.77
2022-12-09T00:28:39.673Z,15.35
2022-12-09T00:31:08.398Z,15.18
2022-12-09T00:33:36.648Z,14.80
2022-12-09T00:36:06.924Z,15.30
2022-12-09T00:38:34.813Z,15.93
2022-12-09T00:41:02.740Z,16.48
2022-12-09T00:43:30.750Z,16.42
2022-12-09T00:46:00.080Z,15.63
2022-12-09T00:48:28.413Z,14.55
2022-12-09T00:50:56.471Z,15.30
2022-12-09T00:53:25.012Z,15.35
2022-12-09T00:55:53.165Z,14.82
2022-12-09T00:58:21.087Z,16.33
2022-12-09T01:00:49.138Z,15.18
2022-12-09T01:03:19.562Z,15.90
2022-12-09T01:05:47.855Z,15.80
2022-12-09T01:08:16.320Z,16.98
2022-12-09T01:10:46.387Z,16.33
2022-12-09T01:13:15.983Z,15.88
2022-12-09T01:15:44.812Z,16.88
2022-12-09T01:18:13.662Z,15.90
2022-12-09T01:20:43.275Z,16.38
2022-12-09T01:23:11.618Z,16.88
2022-12-09T01:25:39.979Z,18.05
2022-12-09T01:28:07.937Z,17.33
2022-12-09T01:30:38.645Z,17.35
2022-12-09T01:33:06.863Z,17.20
2022-12-09T01:35:35.467Z,17.20
2022-12-09T01:38:04.812Z,16.77
2022-12-09T01:40:33.216Z,17.13
2022-12-09T01:43:01.264Z,17.05
2022-12-09T01:45:44.171Z,18.67
2022-12-09T01:48:14.460Z,17.98
2022-12-09T01:50:47.443Z,18.23
2022-12-09T01:53:19.589Z,17.55
2022-12-09T01:55:47.705Z,17.17
2022-12-09T01:58:16.128Z,18.45
2022-12-09T02:00:45.740Z,18.55
2022-12-09T02:03:14.357Z,16.77
2022-12-09T02:05:43.357Z,16.75
2022-12-09T02:08:13.802Z,17.25
2022-12-09T02:10:53.261Z,16.45
2022-12-09T02:13:29.990Z,16.75
2022-12-09T02:16:00.417Z,17.40
2022-12-09T02:18:36.800Z,16.50
2022-12-09T02:21:10.693Z,17.05
2022-12-09T02:23:45.898Z,17.42
2022-12-09T02:26:22.380Z,17.85
2022-12-09T02:29:14.282Z,16.52
2022-12-09T02:31:56.180Z,17.65
2022-12-09T02:34:29.575Z,17.45
2022-12-09T02:37:03.061Z,17.60
2022-12-09T02:39:36.617Z,17.23
2022-12-09T02:42:07.846Z,18.27
2022-12-09T02:44:37.916Z,19.65
2022-12-09T02:47:08.235Z,18.33
2022-12-09T02:49:39.541Z,17.90
2022-12-09T02:52:08.093Z,19.02
2022-12-09T02:54:39.077Z,17.42
2022-12-09T02:57:14.058Z,16.13
2022-12-09T02:59:42.014Z,17.58
2022-12-09T03:02:20.131Z,18.25
2022-12-09T03:05:02.343Z,20.03
2022-12-09T03:07:44.060Z,17.45
2022-12-09T03:10:18.942Z,18.65
2022-12-09T03:12:53.799Z,19.00
2022-12-09T03:15:27.582Z,19.55
2022-12-09T03:17:58.143Z,19.63
2022-12-09T03:20:31.040Z,20.40
2022-12-09T03:23:01.646Z,21.13
2022-12-09T03:25:33.802Z,18.70
2022-12-09T03:28:04.741Z,19.03
2022-12-09T03:30:36.772Z,18.40
2022-12-09T03:33:06.106Z,18.93
2022-12-09T03:35:39.226Z,18.23
2022-12-09T03:38:11.033Z,18.07
2022-12-09T03:40:40.676Z,18.80
2022-12-09T03:43:14.150Z,18.27
2022-12-09T03:45:43.259Z,17.50
2022-12-09T03:48:12.686Z,17.58
2022-12-09T03:50:49.428Z,18.60
2022-12-09T03:53:22.653Z,21.63
2022-12-09T03:55:59.335Z,20.27
2022-12-09T03:58:29.003Z,20.73
2022-12-09T04:00:57.424Z,20.13
2022-12-09T04:03:26.638Z,20.73
2022-12-09T04:05:55.940Z,20.40
2022-12-09T04:08:24.050Z,20.70
2022-12-09T04:10:52.161Z,19.57
2022-12-09T04:13:20.375Z,20.13
2022-12-09T04:15:48.372Z,19.97
2022-12-09T04:18:16.336Z,21.60
2022-12-09T04:20:44.204Z,22.13
2022-12-09T04:23:13.481Z,22.27
2022-12-09T04:25:41.605Z,19.97
2022-12-09T04:28:09.749Z,19.40
2022-12-09T04:30:37.611Z,20.38
2022-12-09T04:33:05.825Z,20.40
2022-12-09T04:35:33.727Z,20.33
2022-12-09T04:38:01.542Z,20.20
2022-12-09T04:40:30.847Z,19.35
2022-12-09T04:42:58.886Z,21.63
2022-12-09T04:45:26.838Z,21.20
2022-12-09T04:47:55.091Z,20.08
2022-12-09T04:50:23.027Z,19.20
2022-12-09T04:52:50.948Z,20.25
2022-12-09T04:55:19.254Z,20.10
2022-12-09T04:57:48.683Z,21.33
2022-12-09T05:00:18.009Z,20.88
2022-12-09T05:02:46.193Z,20.70
2022-12-09T05:05:14.399Z,19.30
2022-12-09T05:07:43.249Z,18.17
2022-12-09T05:10:11.950Z,20.20
2022-12-09T05:12:40.461Z,20.08
2022-12-09T05:15:11.058Z,19.88
2022-12-09T05:17:39.195Z,19.40
2022-12-09T05:20:09.623Z,19.80
2022-12-09T05:22:38.002Z,21.00
2022-12-09T05:25:06.876Z,20.25
2022-12-09T05:27:34.967Z,19.98
2022-12-09T05:30:03.583Z,19.98
2022-12-09T05:32:33.601Z,21.00
2022-12-09T05:35:02.017Z,20.55
2022-12-09T05:37:30.230Z,20.08
2022-12-09T05:39:58.217Z,20.33
2022-12-09T05:42:26.402Z,19.77
2022-12-09T05:44:55.297Z,19.52
2022-12-09T05:47:23.473Z,18.40
2022-12-09T05:49:53.220Z,19.92
2022-12-09T05:52:21.634Z,20.40
2022-12-09T05:54:49.890Z,20.08
2022-12-09T05:57:17.933Z,19.10
2022-12-09T05:59:46.462Z,19.00
2022-12-09T06:02:14.570Z,19.50
2022-12-09T06:04:42.863Z,20.65
2022-12-09T06:07:12.482Z,19.63
2022-12-09T06:09:41.162Z,19.25
2022-12-09T06:12:09.599Z,19.53
2022-12-09T06:14:38.231Z,20.08
2022-12-09T06:17:06.299Z,21.92
2022-12-09T06:19:35.137Z,20.60
2022-12-09T06:22:03.457Z,19.87
2022-12-09T06:24:33.131Z,21.05
2022-12-09T06:27:00.942Z,22.20
2022-12-09T06:29:29.495Z,21.40
2022-12-09T06:31:57.668Z,22.23
2022-12-09T06:34:26.210Z,20.38
2022-12-09T06:36:54.270Z,22.70
2022-12-09T06:39:22.297Z,22.80
2022-12-09T06:41:51.634Z,23.13
2022-12-09T06:44:23.477Z,22.83
2022-12-09T06:46:52.366Z,22.40
2022-12-09T06:49:20.834Z,23.73
2022-12-09T06:51:49.330Z,24.23
2022-12-09T06:54:18.058Z,23.90
2022-12-09T06:56:46.505Z,24.03
2022-12-09T06:59:16.189Z,23.80
2022-12-09T07:01:45.785Z,24.00
2022-12-09T07:04:15.740Z,22.30
2022-12-09T07:06:45.945Z,22.43
2022-12-09T07:09:16.634Z,24.40
2022-12-09T07:11:46.357Z,23.20
2022-12-09T07:14:18.359Z,25.07
2022-12-09T07:16:46.890Z,27.03
2022-12-09T07:19:19.178Z,27.43
2022-12-09T07:21:47.881Z,29.15
2022-12-09T07:24:16.236Z,28.88
2022-12-09T07:26:44.576Z,26.33
2022-12-09T07:29:12.846Z,29.67
2022-12-09T07:31:42.380Z,26.27
2022-12-09T07:34:12.069Z,27.67
2022-12-09T07:36:40.682Z,29.63
2022-12-09T07:39:12.825Z,29.42
2022-12-09T07:41:41.298Z,28.17
2022-12-09T07:44:10.517Z,27.83
2022-12-09T07:46:39.703Z,30.93
2022-12-09T07:49:09.535Z,29.10
2022-12-09T07:51:38.349Z,30.50
2022-12-09T07:54:06.864Z,28.97
2022-12-09T07:56:35.095Z,29.27
2022-12-09T07:59:03.408Z,28.63
2022-12-09T08:01:31.729Z,29.13
2022-12-09T08:04:00.337Z,28.83
2022-12-09T08:06:32.209Z,29.67
2022-12-09T08:09:01.842Z,30.45
2022-12-09T08:11:32.152Z,29.33
2022-12-09T08:14:08.883Z,29.90
2022-12-09T08:16:39.226Z,28.60
2022-12-09T08:19:07.365Z,28.80
2022-12-09T08:21:37.592Z,27.52
2022-12-09T08:24:07.772Z,28.48
2022-12-09T08:26:37.563Z,26.83
2022-12-09T08:29:09.787Z,26.85
2022-12-09T08:31:41.641Z,26.10
2022-12-09T08:34:11.274Z,25.75
2022-12-09T08:36:41.079Z,26.10
2022-12-09T08:39:09.996Z,25.85
2022-12-09T08:41:39.936Z,24.10
2022-12-09T08:44:10.396Z,25.05
2022-12-09T08:46:41.794Z,25.58
2022-12-09T08:49:10.055Z,26.10
2022-12-09T08:51:41.232Z,25.25
2022-12-09T08:54:09.405Z,25.83
2022-12-09T08:56:38.010Z,24.60
2022-12-09T08:59:06.834Z,24.35
2022-12-09T09:01:36.066Z,24.60
2022-12-09T09:04:08.456Z,23.48
2022-12-09T09:06:38.397Z,22.10
2022-12-09T09:09:09.282Z,23.77
2022-12-09T09:11:38.470Z,24.77
2022-12-09T09:14:09.207Z,26.42
2022-12-09T09:16:40.845Z,26.17
2022-12-09T09:19:09.709Z,25.20
2022-12-09T09:21:37.876Z,24.40
2022-12-09T09:24:12.213Z,23.40
2022-12-09T09:26:42.607Z,20.60
2022-12-09T09:29:12.674Z,20.02
2022-12-09T09:31:41.152Z,21.55
2022-12-09T09:34:10.239Z,21.30
2022-12-09T09:36:38.448Z,20.63
2022-12-09T09:39:06.909Z,19.58
2022-12-09T09:41:45.473Z,18.65
2022-12-09T09:44:21.167Z,18.50
2022-12-09T09:46:51.902Z,18.73
2022-12-09T09:49:26.261Z,19.10
2022-12-09T09:51:54.933Z,19.73
2022-12-09T09:54:23.497Z,18.00
2022-12-09T09:56:58.848Z,19.33
2022-12-09T09:59:39.192Z,18.95
2022-12-09T10:02:19.766Z,19.27
2022-12-09T10:05:04.532Z,18.67
2022-12-09T10:07:40.908Z,18.23
2022-12-09T10:10:22.961Z,16.75
2022-12-09T10:13:09.424Z,18.38
2022-12-09T10:15:48.489Z,17.08
2022-12-09T10:18:20.184Z,18.10
2022-12-09T10:20:48.923Z,19.08
2022-12-09T10:23:19.074Z,17.70
2022-12-09T10:25:52.216Z,17.67
2022-12-09T10:28:24.715Z,17.42
2022-12-09T10:30:54.901Z,17.50
2022-12-09T10:33:28.386Z,19.08
2022-12-09T10:35:56.894Z,15.93
2022-12-09T10:38:26.812Z,17.35
2022-12-09T10:41:02.196Z,15.57
2022-12-09T10:43:37.572Z,16.45
2022-12-09T10:46:19.153Z,15.23
2022-12-09T10:48:55.939Z,15.32
2022-12-09T10:51:27.427Z,15.65
2022-12-09T10:53:59.012Z,15.35
2022-12-09T10:56:29.934Z,16.65
2022-12-09T10:59:18.856Z,17.10
2022-12-09T11:01:51.773Z,16.48
2022-12-09T11:04:25.222Z,16.60
2022-12-09T11:06:59.407Z,17.48
2022-12-09T11:09:33.168Z,16.95
2022-12-09T11:12:02.269Z,16.58
2022-12-09T11:14:36.748Z,15.57
2022-12-09T11:17:18.662Z,17.15
2022-12-09T11:19:51.387Z,16.73
2022-12-09T11:22:36.462Z,16.85
2022-12-09T11:25:24.900Z,17.85
2022-12-09T11:27:55.501Z,15.48
2022-12-09T11:30:27.537Z,15.25
2022-12-09T11:33:19.605Z,15.40
2022-12-09T11:35:58.477Z,17.25
2022-12-09T11:38:35.647Z,16.77
2022-12-09T11:41:08.029Z,16.73
2022-12-09T11:43:42.475Z,17.13
2022-12-09T11:46:23.086Z,16.55
2022-12-09T11:48:56.714Z,15.73
2022-12-09T11:51:29.823Z,16.17
2022-12-09T11:54:03.641Z,15.18
2022-12-09T11:56:33.978Z,17.13
2022-12-09T11:59:05.549Z,17.20
2022-12-09T12:01:45.563Z,16.45
2022-12-09T12:04:17.781Z,16.00
2022-12-09T12:06:48.841Z,16.38
2022-12-09T12:09:23.389Z,16.48
2022-12-09T12:12:02.582Z,16.75
2022-12-09T12:14:31.573Z,17.13
2022-12-09T12:17:10.942Z,17.95
2022-12-09T12:19:41.051Z,18.42
2022-12-09T12:22:28.533Z,16.40
2022-12-09T12:25:17.513Z,16.58
2022-12-09T12:27:59.834Z,15.75
2022-12-09T12:30:40.464Z,16.17
2022-12-09T12:36:33.715Z,16.23
2022-12-09T12:39:14.720Z,16.10
2022-12-09T12:41:51.765Z,15.77
2022-12-09T12:45:10.967Z,16.60
2022-12-09T12:47:51.392Z,15.73
2022-12-09T12:51:01.873Z,16.77
2022-12-09T12:53:40.304Z,15.60
2022-12-09T12:56:12.337Z,16.98
2022-12-09T12:59:07.954Z,15.20
2022-12-09T13:01:53.965Z,14.82
2022-12-09T13:04:26.201Z,15.80
2022-12-09T13:07:06.424Z,15.80
2022-12-09T13:09:43.611Z,14.82
2022-12-09T13:12:16.815Z,14.98
2022-12-09T13:14:53.391Z,14.80
2022-12-09T13:17:24.518Z,15.25
2022-12-09T13:19:54.215Z,14.07
2022-12-09T13:22:34.276Z,14.07
2022-12-09T13:25:13.704Z,14.80
2022-12-09T13:27:46.195Z,14.68
2022-12-09T13:30:18.937Z,12.52
2022-12-09T13:33:02.371Z,14.25
2022-12-09T13:35:36.815Z,13.90
2022-12-09T13:38:25.767Z,14.32
2022-12-09T13:40:53.979Z,14.30
2022-12-09T13:43:25.748Z,13.63
2022-12-09T13:45:57.374Z,13.25
2022-12-09T13:48:45.333Z,13.63
2022-12-09T13:51:14.609Z,14.43
2022-12-09T13:54:01.199Z,14.15
2022-12-09T13:56:31.705Z,12.95
2022-12-09T13:59:32.719Z,13.48
2022-12-09T14:02:11.365Z,13.75
2022-12-09T14:04:47.755Z,13.05
2022-12-09T14:07:27.395Z,14.35
2022-12-09T14:09:58.142Z,14.15
2022-12-09T14:13:05.072Z,13.25
2022-12-09T14:15:39.249Z,14.35
2022-12-09T14:18:28.675Z,14.32
2022-12-09T14:21:31.531Z,14.23
2022-12-09T14:24:36.774Z,13.48
2022-12-09T14:27:17.492Z,12.32
2022-12-09T14:29:48.793Z,12.93
2022-12-09T14:32:26.037Z,13.25
2022-12-09T14:35:22.575Z,13.40
2022-12-09T14:38:02.825Z,12.88
2022-12-09T14:40:52.719Z,14.48
2022-12-09T14:43:50.484Z,13.73
2022-12-09T14:46:30.101Z,13.80
2022-12-09T14:49:02.554Z,13.13
2022-12-09T14:51:36.780Z,13.40
2022-12-09T14:54:26.135Z,13.95
2022-12-09T14:56:57.675Z,13.30
2022-12-09T14:59:29.115Z,14.07
2022-12-09T15:01:59.147Z,13.77
2022-12-09T15:04:31.389Z,14.05
2022-12-09T15:07:25.176Z,15.00
2022-12-09T15:09:55.825Z,13.82
2022-12-09T15:12:28.310Z,14.18
2022-12-09T15:15:00.853Z,14.50
2022-12-09T15:17:32.895Z,13.52
2022-12-09T15:20:12.159Z,14.65
2022-12-09T15:22:40.252Z,14.25
2022-12-09T15:25:18.174Z,14.32
2022-12-09T15:27:57.451Z,13.65
2022-12-09T15:30:31.324Z,14.93
2022-12-09T15:32:59.595Z,14.75
2022-12-09T15:35:29.765Z,14.80
2022-12-09T15:38:04.933Z,13.07
2022-12-09T15:40:35.807Z,13.60
2022-12-09T15:43:10.143Z,13.50
2022-12-09T15:45:44.109Z,13.55
2022-12-09T15:48:17.291Z,14.73
2022-12-09T15:50:50.996Z,14.52
2022-12-09T15:53:24.296Z,13.43
2022-12-09T15:55:55.120Z,12.93
2022-12-09T15:58:26.430Z,12.55
2022-12-09T16:00:56.322Z,13.93
2022-12-09T16:03:27.244Z,13.83
2022-12-09T16:05:58.861Z,14.30
2022-12-09T16:08:33.592Z,13.52
2022-12-09T16:11:01.948Z,15.13
2022-12-09T16:13:29.921Z,14.30
2022-12-09T16:16:00.804Z,14.07
2022-12-09T16:18:33.291Z,12.60
2022-12-09T16:21:26.638Z,12.30
2022-12-09T16:23:57.981Z,12.73
2022-12-09T16:26:30.878Z,11.85
2022-12-09T16:29:00.896Z,13.30
2022-12-09T16:31:30.749Z,12.70
2022-12-09T16:33:59.245Z,14.25
2022-12-09T16:36:29.495Z,14.00
2022-12-09T16:39:34.633Z,14.40
2022-12-09T16:42:03.413Z,13.55
2022-12-09T16:44:36.824Z,13.38
2022-12-09T16:47:17.447Z,13.68
2022-12-09T16:49:49.569Z,14.20
2022-12-09T16:52:21.233Z,13.48
2022-12-09T16:54:51.195Z,13.40
2022-12-09T16:57:21.324Z,12.35
2022-12-09T16:59:49.268Z,12.55
2022-12-09T17:02:22.534Z,12.32
2022-12-09T17:04:52.674Z,12.32
2022-12-09T17:07:20.694Z,13.38
2022-12-09T17:09:48.554Z,13.23
2022-12-09T17:12:16.482Z,12.80
2022-12-09T17:14:44.510Z,12.30
2022-12-09T17:17:12.522Z,11.77
2022-12-09T17:19:43.050Z,12.07
2022-12-09T17:22:11.839Z,12.35
2022-12-09T17:24:39.831Z,12.95
2022-12-09T17:27:07.876Z,12.60
2022-12-09T17:29:36.875Z,11.25
2022-12-09T17:32:05.632Z,11.45
2022-12-09T17:34:33.798Z,11.00
2022-12-09T17:37:03.058Z,11.75
2022-12-09T17:39:32.344Z,11.95
2022-12-09T17:42:00.404Z,12.82
2022-12-09T17:44:29.035Z,11.00
2022-12-09T17:46:57.379Z,12.82
2022-12-09T17:49:26.423Z,13.77
2022-12-09T17:51:59.656Z,12.57
2022-12-09T17:54:29.760Z,15.15
2022-12-09T17:56:57.738Z,17.30
2022-12-09T17:59:25.579Z,16.10
2022-12-09T18:01:53.474Z,11.65
2022-12-09T18:04:21.363Z,13.52
2022-12-09T18:06:49.370Z,15.07
2022-12-09T18:09:19.954Z,12.35
2022-12-09T18:11:50.891Z,13.98
2022-12-09T18:14:19.954Z,11.88
2022-12-09T18:16:49.200Z,12.43
2022-12-09T18:19:20.369Z,12.25
2022-12-09T18:21:48.414Z,11.13
2022-12-09T18:24:16.466Z,11.65
2022-12-09T18:26:45.224Z,11.35
2022-12-09T18:29:14.805Z,14.15
2022-12-09T18:31:45.657Z,11.95
2022-12-09T18:34:13.726Z,13.25
2022-12-09T18:36:41.819Z,12.27
2022-12-09T18:39:09.711Z,13.15
2022-12-09T18:41:37.602Z,14.02
2022-12-09T18:44:07.373Z,13.90
2022-12-09T18:46:39.222Z,14.15
2022-12-09T18:49:09.254Z,13.73
2022-12-09T18:51:38.917Z,13.57
2022-12-09T18:54:07.550Z,12.68
2022-12-09T18:56:36.621Z,12.40
2022-12-09T18:59:07.583Z,12.02
2022-12-09T19:01:40.304Z,13.15
2022-12-09T19:04:11.790Z,13.75
2022-12-09T19:06:41.434Z,12.48
2022-12-09T19:09:11.302Z,13.90
2022-12-09T19:11:43.777Z,13.35
2022-12-09T19:14:12.435Z,13.25
2022-12-09T19:16:42.575Z,12.55
2022-12-09T19:19:13.463Z,13.25
2022-12-09T19:21:41.776Z,13.98
2022-12-09T19:24:15.126Z,13.90
2022-12-09T19:26:43.945Z,13.52
2022-12-09T19:29:12.762Z,12.48
2022-12-09T19:31:44.307Z,12.93
2022-12-09T19:34:15.944Z,14.05
2022-12-09T19:36:45.318Z,15.23
2022-12-09T19:39:14.834Z,13.48
2022-12-09T19:41:43.947Z,13.23
2022-12-09T19:44:15.356Z,12.88
2022-12-09T19:46:45.275Z,13.30
2022-12-09T19:49:15.061Z,13.68
2022-12-09T19:51:44.492Z,13.80
2022-12-09T19:54:12.472Z,13.88
2022-12-09T19:56:41.020Z,15.48
2022-12-09T19:59:09.151Z,14.00
2022-12-09T20:01:39.080Z,14.07
2022-12-09T20:04:46.418Z,13.27
2022-12-09T20:07:02.453Z,14.05
2022-12-09T20:09:34.421Z,13.88
2022-12-09T20:12:02.308Z,12.45
2022-12-09T20:14:30.268Z,13.93
2022-12-09T20:16:58.172Z,13.15
2022-12-09T20:19:27.847Z,13.45
2022-12-09T20:21:55.833Z,14.00
2022-12-09T20:24:23.820Z,13.32
2022-12-09T20:26:51.869Z,13.52
2022-12-09T20:29:19.743Z,14.25
2022-12-09T20:31:47.814Z,12.90
2022-12-09T20:34:18.032Z,12.40
2022-12-09T20:36:48.569Z,12.23
2022-12-09T20:39:19.156Z,13.45
2022-12-09T20:41:48.078Z,13.55
2022-12-09T20:44:16.849Z,13.60
2022-12-09T20:46:47.731Z,13.55
2022-12-09T20:49:15.883Z,13.57
2022-12-09T20:51:45.410Z,13.65
2022-12-09T20:54:15.066Z,11.88
2022-12-09T20:56:47.695Z,12.98
2022-12-09T20:59:15.562Z,13.15
2022-12-09T21:01:47.098Z,12.45
2022-12-09T21:04:15.189Z,13.25
2022-12-09T21:06:43.822Z,12.68
2022-12-09T21:09:18.594Z,13.57
2022-12-09T21:11:46.967Z,12.77
2022-12-09T21:14:18.126Z,13.60
2022-12-09T21:16:50.595Z,12.80
2022-12-09T21:19:22.554Z,12.95
2022-12-09T21:21:50.851Z,13.27
2022-12-09T21:24:21.825Z,13.20
2022-12-09T21:26:53.067Z,14.45
2022-12-09T21:29:22.321Z,14.32
2022-12-09T21:31:54.494Z,14.50
2022-12-09T21:34:24.220Z,14.90
2022-12-09T21:36:52.872Z,13.73
2022-12-09T21:39:22.132Z,13.32
2022-12-09T21:41:50.469Z,12.65
2022-12-09T21:44:20.019Z,14.00
2022-12-09T21:46:47.829Z,13.55
2022-12-09T21:49:16.062Z,14.35
2022-12-09T21:51:44.734Z,14.63
2022-12-09T21:54:12.780Z,14.45
2022-12-09T21:56:43.776Z,13.27
2022-12-09T21:59:14.436Z,14.07
2022-12-09T22:01:43.740Z,14.18
2022-12-09T22:04:13.408Z,14.80
2022-12-09T22:06:41.546Z,15.32
2022-12-09T22:09:11.423Z,14.57
2022-12-09T22:11:41.384Z,14.40
2022-12-09T22:14:11.067Z,14.95
2022-12-09T22:16:41.583Z,14.40
2022-12-09T22:19:13.880Z,14.10
2022-12-09T22:21:42.191Z,14.25
2022-12-09T22:24:11.809Z,13.45
2022-12-09T22:26:43.576Z,13.85
2022-12-09T22:29:14.021Z,13.05
2022-12-09T22:31:43.254Z,13.60
2022-12-09T22:34:14.589Z,13.32
2022-12-09T22:36:43.106Z,13.23
2022-12-09T22:39:13.491Z,13.13
2022-12-09T22:41:43.803Z,12.65
2022-12-09T22:44:13.798Z,13.27
2022-12-09T22:46:42.794Z,13.90
2022-12-09T22:49:13.734Z,14.23
2022-12-09T22:51:42.621Z,12.90
2022-12-09T22:54:11.144Z,13.45
2022-12-09T22:56:41.133Z,13.80
2022-12-09T22:59:10.675Z,13.27
2022-12-09T23:01:38.968Z,14.13
2022-12-09T23:04:08.918Z,12.85
2022-12-09T23:06:39.222Z,13.27
2022-12-09T23:09:08.788Z,12.57
2022-12-09T23:11:37.698Z,13.40
2022-12-09T23:14:06.063Z,13.68
2022-12-09T23:16:35.320Z,15.60
2022-12-09T23:19:03.355Z,14.15
2022-12-09T23:21:33.240Z,13.70
2022-12-09T23:24:03.346Z,14.75
2022-12-09T23:26:34.418Z,14.68
2022-12-09T23:29:04.404Z,14.30
2022-12-09T23:31:37.578Z,14.82
2022-12-09T23:34:07.223Z,12.98
2022-12-09T23:36:37.179Z,13.75
2022-12-09T23:39:09.389Z,13.00
2022-12-09T23:41:37.734Z,11.65
2022-12-09T23:44:09.817Z,13.93
2022-12-09T23:46:39.813Z,13.07
2022-12-09T23:49:08.509Z,13.60
2022-12-09T23:51:39.507Z,14.88
2022-12-09T23:54:09.433Z,14.77
2022-12-09T23:56:39.924Z,14.45
2022-12-09T23:59:09.867Z,13.68
